sensor_id;sensor_type;location;lat;lon;timestamp;pressure;altitude;pressure_sealevel;temperature;humidity
9139;BME280;4604;48.616;9.548;2022-08-01T00:00:22;96922.78;;;21.61;53.79
9139;BME280;4604;48.616;9.548;2022-08-01T00:02:49;96893.84;;;21.49;53.07
9139;BME280;4604;48.616;9.548;2022-08-01T00:05:16;96941.97;;;21.71;53.34
9139;BME280;4604;48.616;9.548;2022-08-01T00:07:45;96938.84;;;21.67;53.18
9139;BME280;4604;48.616;9.548;2022-08-01T00:10:14;96948.16;;;21.78;53.29
9139;BME280;4604;48.616;9.548;2022-08-01T00:12:43;96919.66;;;21.64;53.43
9139;BME280;4604;48.616;9.548;2022-08-01T00:15:12;96951.88;;;21.77;53.44
9139;BME280;4604;48.616;9.548;2022-08-01T00:17:43;96932.47;;;21.62;53.73
9139;BME280;4604;48.616;9.548;2022-08-01T00:20:11;96950.66;;;21.73;53.46
9139;BME280;4604;48.616;9.548;2022-08-01T00:22:47;96950.22;;;21.69;52.33
9139;BME280;4604;48.616;9.548;2022-08-01T00:25:14;96945.47;;;21.71;52.60
9139;BME280;4604;48.616;9.548;2022-08-01T00:27:42;96938.03;;;21.80;52.63
9139;BME280;4604;48.616;9.548;2022-08-01T00:30:10;96922.53;;;21.69;52.95
9139;BME280;4604;48.616;9.548;2022-08-01T00:32:36;96958.06;;;21.77;53.45
9139;BME280;4604;48.616;9.548;2022-08-01T00:35:04;96950.66;;;21.73;53.71
9139;BME280;4604;48.616;9.548;2022-08-01T00:37:30;96960.97;;;21.69;54.03
9139;BME280;4604;48.616;9.548;2022-08-01T00:39:59;96947.34;;;21.57;54.09
9139;BME280;4604;48.616;9.548;2022-08-01T00:42:25;96951.66;;;21.65;54.76
9139;BME280;4604;48.616;9.548;2022-08-01T00:44:52;96951.88;;;21.50;54.85
9139;BME280;4604;48.616;9.548;2022-08-01T00:47:19;96883.13;;;21.03;54.62
9139;BME280;4604;48.616;9.548;2022-08-01T00:49:46;96939.50;;;21.43;54.60
9139;BME280;4604;48.616;9.548;2022-08-01T00:52:13;96961.63;;;21.51;54.62
9139;BME280;4604;48.616;9.548;2022-08-01T00:54:46;96943.00;;;21.36;55.24
9139;BME280;4604;48.616;9.548;2022-08-01T00:57:14;96957.06;;;21.45;55.64
9139;BME280;4604;48.616;9.548;2022-08-01T00:59:43;96944.84;;;21.36;55.68
9139;BME280;4604;48.616;9.548;2022-08-01T01:02:10;96961.22;;;21.41;55.90
9139;BME280;4604;48.616;9.548;2022-08-01T01:04:37;96964.94;;;21.47;54.72
9139;BME280;4604;48.616;9.548;2022-08-01T01:07:07;96959.13;;;21.50;54.08
9139;BME280;4604;48.616;9.548;2022-08-01T01:09:40;96956.88;;;21.47;53.46
9139;BME280;4604;48.616;9.548;2022-08-01T01:12:18;96959.75;;;21.52;53.70
9139;BME280;4604;48.616;9.548;2022-08-01T01:14:54;96935.38;;;21.40;53.09
9139;BME280;4604;48.616;9.548;2022-08-01T01:17:28;96965.31;;;21.64;53.28
9139;BME280;4604;48.616;9.548;2022-08-01T01:19:57;96945.09;;;21.54;53.10
9139;BME280;4604;48.616;9.548;2022-08-01T01:22:36;96945.91;;;21.68;52.81
9139;BME280;4604;48.616;9.548;2022-08-01T01:25:21;96934.72;;;21.58;53.05
9139;BME280;4604;48.616;9.548;2022-08-01T01:27:59;96957.03;;;21.85;52.44
9139;BME280;4604;48.616;9.548;2022-08-01T01:30:31;96916.16;;;21.50;52.46
9139;BME280;4604;48.616;9.548;2022-08-01T01:33:02;96922.53;;;21.62;52.32
9139;BME280;4604;48.616;9.548;2022-08-01T01:35:34;96911.00;;;21.55;52.43
9139;BME280;4604;48.616;9.548;2022-08-01T01:38:12;96951.88;;;21.77;52.23
9139;BME280;4604;48.616;9.548;2022-08-01T01:40:42;96929.97;;;21.60;52.63
9139;BME280;4604;48.616;9.548;2022-08-01T01:43:11;96979.13;;;21.87;52.70
9139;BME280;4604;48.616;9.548;2022-08-01T01:45:41;96886.41;;;21.38;52.50
9139;BME280;4604;48.616;9.548;2022-08-01T01:48:09;96983.69;;;21.87;52.67
9139;BME280;4604;48.616;9.548;2022-08-01T01:50:37;96959.72;;;21.65;52.93
9139;BME280;4604;48.616;9.548;2022-08-01T01:53:05;96965.53;;;21.75;53.16
9139;BME280;4604;48.616;9.548;2022-08-01T01:55:34;96940.31;;;21.70;52.70
9139;BME280;4604;48.616;9.548;2022-08-01T01:58:02;96972.31;;;21.85;52.94
9139;BME280;4604;48.616;9.548;2022-08-01T02:00:31;96959.09;;;21.70;52.92
9139;BME280;4604;48.616;9.548;2022-08-01T02:03:01;96935.97;;;21.55;53.76
9139;BME280;4604;48.616;9.548;2022-08-01T02:05:29;96951.28;;;21.55;53.62
9139;BME280;4604;48.616;9.548;2022-08-01T02:11:23;96923.81;;;21.40;53.65
9139;BME280;4604;48.616;9.548;2022-08-01T02:14:12;96930.81;;;21.41;53.89
9139;BME280;4604;48.616;9.548;2022-08-01T02:16:49;96978.94;;;21.69;54.02
9139;BME280;4604;48.616;9.548;2022-08-01T02:20:34;96896.94;;;21.06;54.06
9139;BME280;4604;48.616;9.548;2022-08-01T02:26:50;96914.50;;;21.09;55.46
9139;BME280;4604;48.616;9.548;2022-08-01T02:29:27;96952.91;;;21.29;55.45
9139;BME280;4604;48.616;9.548;2022-08-01T02:31:54;96965.72;;;21.21;56.34
9139;BME280;4604;48.616;9.548;2022-08-01T02:34:24;96895.06;;;20.67;56.70
9139;BME280;4604;48.616;9.548;2022-08-01T02:40:19;96956.00;;;21.06;56.83
9139;BME280;4604;48.616;9.548;2022-08-01T02:42:50;96985.53;;;21.33;56.72
9139;BME280;4604;48.616;9.548;2022-08-01T02:45:34;96893.63;;;20.71;57.08
9139;BME280;4604;48.616;9.548;2022-08-01T02:48:16;96977.69;;;21.18;57.74
9139;BME280;4604;48.616;9.548;2022-08-01T02:51:00;96937.59;;;20.97;57.93
9139;BME280;4604;48.616;9.548;2022-08-01T02:53:33;96970.66;;;21.17;58.30
9139;BME280;4604;48.616;9.548;2022-08-01T02:56:15;96981.00;;;21.27;58.43
9139;BME280;4604;48.616;9.548;2022-08-01T02:58:51;96981.81;;;21.27;58.14
9139;BME280;4604;48.616;9.548;2022-08-01T03:01:30;96886.59;;;20.70;58.16
9139;BME280;4604;48.616;9.548;2022-08-01T03:03:58;96946.50;;;21.04;58.09
9139;BME280;4604;48.616;9.548;2022-08-01T03:06:29;96987.59;;;21.31;58.49
9139;BME280;4604;48.616;9.548;2022-08-01T03:08:57;96979.75;;;21.29;58.66
9139;BME280;4604;48.616;9.548;2022-08-01T03:11:27;96983.25;;;21.23;59.08
9139;BME280;4604;48.616;9.548;2022-08-01T03:14:00;96974.19;;;21.17;59.58
9139;BME280;4604;48.616;9.548;2022-08-01T03:16:40;96984.06;;;21.10;60.15
9139;BME280;4604;48.616;9.548;2022-08-01T03:19:12;96940.25;;;20.77;60.68
9139;BME280;4604;48.616;9.548;2022-08-01T03:24:32;96907.75;;;20.31;62.26
9139;BME280;4604;48.616;9.548;2022-08-01T03:27:22;96932.94;;;20.50;62.34
9139;BME280;4604;48.616;9.548;2022-08-01T03:29:55;96962.44;;;20.50;62.36
9139;BME280;4604;48.616;9.548;2022-08-01T03:32:23;96959.75;;;20.44;62.56
9139;BME280;4604;48.616;9.548;2022-08-01T03:34:50;96999.25;;;20.63;62.87
9139;BME280;4604;48.616;9.548;2022-08-01T03:37:21;96994.22;;;20.53;63.75
9139;BME280;4604;48.616;9.548;2022-08-01T03:39:55;96967.94;;;20.36;63.99
9139;BME280;4604;48.616;9.548;2022-08-01T03:42:31;96911.28;;;19.91;64.30
9139;BME280;4604;48.616;9.548;2022-08-01T03:45:02;96944.09;;;20.06;65.10
9139;BME280;4604;48.616;9.548;2022-08-01T03:47:31;96951.69;;;19.96;65.68
9139;BME280;4604;48.616;9.548;2022-08-01T03:50:01;97007.47;;;20.20;66.11
9139;BME280;4604;48.616;9.548;2022-08-01T03:52:29;97004.56;;;20.15;66.62
9139;BME280;4604;48.616;9.548;2022-08-01T03:54:59;96998.97;;;20.10;67.17
9139;BME280;4604;48.616;9.548;2022-08-01T03:57:29;96985.47;;;19.90;67.45
9139;BME280;4604;48.616;9.548;2022-08-01T03:59:57;96979.00;;;19.78;67.61
9139;BME280;4604;48.616;9.548;2022-08-01T04:02:31;97005.44;;;19.94;67.88
9139;BME280;4604;48.616;9.548;2022-08-01T04:04:59;96954.69;;;19.58;68.19
9139;BME280;4604;48.616;9.548;2022-08-01T04:07:27;96916.66;;;19.34;68.75
9139;BME280;4604;48.616;9.548;2022-08-01T04:09:56;96969.19;;;19.63;69.04
9139;BME280;4604;48.616;9.548;2022-08-01T04:12:46;96920.25;;;19.20;69.36
9139;BME280;4604;48.616;9.548;2022-08-01T04:15:13;96966.59;;;19.49;69.63
9139;BME280;4604;48.616;9.548;2022-08-01T04:17:40;97000.53;;;19.70;69.83
9139;BME280;4604;48.616;9.548;2022-08-01T04:20:08;97001.75;;;19.67;70.17
9139;BME280;4604;48.616;9.548;2022-08-01T04:22:36;97009.22;;;19.72;70.46
9139;BME280;4604;48.616;9.548;2022-08-01T04:25:07;97006.34;;;19.73;70.77
9139;BME280;4604;48.616;9.548;2022-08-01T04:27:39;96996.28;;;19.54;71.23
9139;BME280;4604;48.616;9.548;2022-08-01T04:30:10;97004.50;;;19.52;71.05
9139;BME280;4604;48.616;9.548;2022-08-01T04:32:39;97018.00;;;19.65;71.32
9139;BME280;4604;48.616;9.548;2022-08-01T04:35:08;97017.66;;;19.69;71.22
9139;BME280;4604;48.616;9.548;2022-08-01T04:37:38;97012.94;;;19.71;71.33
9139;BME280;4604;48.616;9.548;2022-08-01T04:40:08;97016.63;;;19.70;71.50
9139;BME280;4604;48.616;9.548;2022-08-01T04:42:36;97022.47;;;19.80;71.46
9139;BME280;4604;48.616;9.548;2022-08-01T04:45:04;97005.78;;;19.78;71.55
9139;BME280;4604;48.616;9.548;2022-08-01T04:47:35;97021.50;;;19.87;71.86
9139;BME280;4604;48.616;9.548;2022-08-01T04:50:04;97025.63;;;19.90;72.09
9139;BME280;4604;48.616;9.548;2022-08-01T04:52:33;97021.50;;;19.87;72.09
9139;BME280;4604;48.616;9.548;2022-08-01T04:55:00;97034.09;;;19.94;72.48
9139;BME280;4604;48.616;9.548;2022-08-01T04:57:27;97029.56;;;19.94;72.85
9139;BME280;4604;48.616;9.548;2022-08-01T04:59:54;97024.41;;;19.93;73.48
9139;BME280;4604;48.616;9.548;2022-08-01T05:02:23;97032.88;;;19.96;74.08
9139;BME280;4604;48.616;9.548;2022-08-01T05:04:54;97034.56;;;19.97;74.33
9139;BME280;4604;48.616;9.548;2022-08-01T05:07:21;97020.94;;;19.99;73.92
9139;BME280;4604;48.616;9.548;2022-08-01T05:09:48;97017.03;;;19.95;73.77
9139;BME280;4604;48.616;9.548;2022-08-01T05:12:16;97023.28;;;20.08;73.23
9139;BME280;4604;48.616;9.548;2022-08-01T05:14:43;96987.91;;;19.92;73.14
9139;BME280;4604;48.616;9.548;2022-08-01T05:17:10;97031.19;;;20.23;73.34
9139;BME280;4604;48.616;9.548;2022-08-01T05:19:38;97004.56;;;20.15;73.56
9139;BME280;4604;48.616;9.548;2022-08-01T05:22:08;97014.06;;;20.18;73.74
9139;BME280;4604;48.616;9.548;2022-08-01T05:24:36;97015.69;;;20.19;73.87
9139;BME280;4604;48.616;9.548;2022-08-01T05:27:04;97025.19;;;20.21;74.02
9139;BME280;4604;48.616;9.548;2022-08-01T05:29:31;97028.91;;;20.20;73.78
9139;BME280;4604;48.616;9.548;2022-08-01T05:31:58;97022.09;;;20.18;73.56
9139;BME280;4604;48.616;9.548;2022-08-01T05:34:25;97031.63;;;20.27;73.72
9139;BME280;4604;48.616;9.548;2022-08-01T05:36:53;97039.91;;;20.32;73.78
9139;BME280;4604;48.616;9.548;2022-08-01T05:39:21;97031.03;;;20.31;74.06
9139;BME280;4604;48.616;9.548;2022-08-01T05:41:47;97026.28;;;20.34;74.23
9139;BME280;4604;48.616;9.548;2022-08-01T05:44:14;97028.78;;;20.35;74.59
9139;BME280;4604;48.616;9.548;2022-08-01T05:46:41;97004.78;;;20.20;74.94
9139;BME280;4604;48.616;9.548;2022-08-01T05:49:08;97022.19;;;20.38;75.18
9139;BME280;4604;48.616;9.548;2022-08-01T05:51:35;97012.50;;;20.37;75.54
9139;BME280;4604;48.616;9.548;2022-08-01T05:54:01;97017.88;;;20.43;75.66
9139;BME280;4604;48.616;9.548;2022-08-01T05:56:30;97015.63;;;20.47;75.38
9139;BME280;4604;48.616;9.548;2022-08-01T05:58:57;96989.19;;;20.37;75.11
9139;BME280;4604;48.616;9.548;2022-08-01T06:01:23;97024.84;;;20.66;75.08
9139;BME280;4604;48.616;9.548;2022-08-01T06:03:50;97023.59;;;20.75;74.65
9139;BME280;4604;48.616;9.548;2022-08-01T06:06:18;97018.09;;;20.83;74.25
9139;BME280;4604;48.616;9.548;2022-08-01T06:08:44;97026.75;;;20.92;74.48
9139;BME280;4604;48.616;9.548;2022-08-01T06:11:11;97023.91;;;21.00;74.29
9139;BME280;4604;48.616;9.548;2022-08-01T06:13:39;97016.91;;;21.12;73.73
9139;BME280;4604;48.616;9.548;2022-08-01T06:16:06;97029.72;;;21.30;73.06
9139;BME280;4604;48.616;9.548;2022-08-01T06:18:33;97026.25;;;21.43;72.29
9139;BME280;4604;48.616;9.548;2022-08-01T06:21:00;97028.53;;;21.59;71.82
9139;BME280;4604;48.616;9.548;2022-08-01T06:23:26;97003.75;;;21.57;70.21
9139;BME280;4604;48.616;9.548;2022-08-01T06:25:53;97037.84;;;21.90;69.73
9139;BME280;4604;48.616;9.548;2022-08-01T06:28:20;97025.38;;;22.09;67.38
9139;BME280;4604;48.616;9.548;2022-08-01T06:30:51;97026.00;;;22.18;66.65
9139;BME280;4604;48.616;9.548;2022-08-01T06:33:18;97036.13;;;22.36;64.91
9139;BME280;4604;48.616;9.548;2022-08-01T06:35:45;97037.09;;;22.48;63.76
9139;BME280;4604;48.616;9.548;2022-08-01T06:38:12;97032.72;;;22.60;62.95
9139;BME280;4604;48.616;9.548;2022-08-01T06:40:38;97034.97;;;22.70;62.48
9139;BME280;4604;48.616;9.548;2022-08-01T06:43:05;97034.72;;;22.85;62.38
9139;BME280;4604;48.616;9.548;2022-08-01T06:45:32;97043.75;;;22.97;61.61
9139;BME280;4604;48.616;9.548;2022-08-01T06:48:00;97024.28;;;23.02;61.85
9139;BME280;4604;48.616;9.548;2022-08-01T06:50:30;97045.22;;;23.00;61.19
9139;BME280;4604;48.616;9.548;2022-08-01T06:52:56;97044.59;;;22.98;61.33
9139;BME280;4604;48.616;9.548;2022-08-01T06:55:23;97035.28;;;22.94;62.20
9139;BME280;4604;48.616;9.548;2022-08-01T06:57:51;97040.81;;;23.12;62.84
9139;BME280;4604;48.616;9.548;2022-08-01T07:00:19;97047.78;;;23.26;62.06
9139;BME280;4604;48.616;9.548;2022-08-01T07:02:47;97027.69;;;23.22;61.43
9139;BME280;4604;48.616;9.548;2022-08-01T07:05:16;97027.22;;;23.32;60.88
9139;BME280;4604;48.616;9.548;2022-08-01T07:07:42;97038.81;;;23.33;60.51
9139;BME280;4604;48.616;9.548;2022-08-01T07:10:10;96981.56;;;23.12;59.90
9139;BME280;4604;48.616;9.548;2022-08-01T07:12:37;97035.31;;;23.57;59.79
9139;BME280;4604;48.616;9.548;2022-08-01T07:15:06;97009.84;;;23.53;60.22
9139;BME280;4604;48.616;9.548;2022-08-01T07:17:36;97035.06;;;23.90;59.37
9139;BME280;4604;48.616;9.548;2022-08-01T07:20:07;97035.69;;;23.92;59.20
9139;BME280;4604;48.616;9.548;2022-08-01T07:22:35;97021.50;;;23.72;59.69
9139;BME280;4604;48.616;9.548;2022-08-01T07:25:03;97019.47;;;23.67;59.04
9139;BME280;4604;48.616;9.548;2022-08-01T07:27:30;97037.59;;;23.85;59.02
9139;BME280;4604;48.616;9.548;2022-08-01T07:29:57;97022.88;;;23.88;58.92
9139;BME280;4604;48.616;9.548;2022-08-01T07:32:24;97046.31;;;24.06;57.96
9139;BME280;4604;48.616;9.548;2022-08-01T07:34:51;97041.50;;;23.89;58.04
9139;BME280;4604;48.616;9.548;2022-08-01T07:37:18;97033.09;;;23.79;57.40
9139;BME280;4604;48.616;9.548;2022-08-01T07:39:46;97041.44;;;23.96;57.64
9139;BME280;4604;48.616;9.548;2022-08-01T07:42:13;97034.56;;;24.00;56.57
9139;BME280;4604;48.616;9.548;2022-08-01T07:44:39;97042.41;;;24.02;56.80
9139;BME280;4604;48.616;9.548;2022-08-01T07:47:06;97030.81;;;24.01;56.79
9139;BME280;4604;48.616;9.548;2022-08-01T07:49:33;97024.78;;;24.24;56.50
9139;BME280;4604;48.616;9.548;2022-08-01T07:52:00;97036.59;;;24.05;56.12
9139;BME280;4604;48.616;9.548;2022-08-01T07:54:27;97041.88;;;24.37;55.41
9139;BME280;4604;48.616;9.548;2022-08-01T07:56:55;97039.81;;;24.57;54.16
9139;BME280;4604;48.616;9.548;2022-08-01T07:59:22;97042.25;;;24.77;54.30
9139;BME280;4604;48.616;9.548;2022-08-01T08:01:49;97038.53;;;24.78;53.59
9139;BME280;4604;48.616;9.548;2022-08-01T08:04:16;97048.34;;;24.54;54.20
9139;BME280;4604;48.616;9.548;2022-08-01T08:06:43;97042.38;;;24.45;54.96
9139;BME280;4604;48.616;9.548;2022-08-01T08:09:12;97039.50;;;24.47;54.82
9139;BME280;4604;48.616;9.548;2022-08-01T08:11:39;97024.50;;;24.69;54.48
9139;BME280;4604;48.616;9.548;2022-08-01T08:14:12;97041.63;;;24.63;54.46
9139;BME280;4604;48.616;9.548;2022-08-01T08:16:38;97037.09;;;24.57;55.33
9139;BME280;4604;48.616;9.548;2022-08-01T08:19:08;97033.47;;;24.82;54.43
9139;BME280;4604;48.616;9.548;2022-08-01T08:21:34;97038.31;;;25.10;53.55
9139;BME280;4604;48.616;9.548;2022-08-01T08:24:01;97041.44;;;25.25;52.58
9139;BME280;4604;48.616;9.548;2022-08-01T08:26:49;97043.81;;;25.33;53.66
9139;BME280;4604;48.616;9.548;2022-08-01T08:29:17;97044.00;;;25.20;53.49
9139;BME280;4604;48.616;9.548;2022-08-01T08:31:44;97041.56;;;25.30;54.14
9139;BME280;4604;48.616;9.548;2022-08-01T08:34:11;97044.09;;;25.44;53.05
9139;BME280;4604;48.616;9.548;2022-08-01T08:36:37;97045.47;;;25.34;52.74
9139;BME280;4604;48.616;9.548;2022-08-01T08:39:05;97042.72;;;25.23;53.06
9139;BME280;4604;48.616;9.548;2022-08-01T08:41:33;97040.50;;;25.01;53.61
9139;BME280;4604;48.616;9.548;2022-08-01T08:44:00;97036.91;;;25.37;53.04
9139;BME280;4604;48.616;9.548;2022-08-01T08:46:30;97024.44;;;25.06;53.36
9139;BME280;4604;48.616;9.548;2022-08-01T08:49:00;97047.19;;;25.17;53.27
9139;BME280;4604;48.616;9.548;2022-08-01T08:51:27;97038.81;;;25.49;52.83
9139;BME280;4604;48.616;9.548;2022-08-01T08:53:57;97032.53;;;25.06;53.67
9139;BME280;4604;48.616;9.548;2022-08-01T08:56:24;97036.78;;;25.14;53.22
9139;BME280;4604;48.616;9.548;2022-08-01T08:58:52;97032.16;;;25.21;53.41
9139;BME280;4604;48.616;9.548;2022-08-01T09:01:19;97030.94;;;25.47;52.76
9139;BME280;4604;48.616;9.548;2022-08-01T09:03:47;96974.13;;;25.24;51.87
9139;BME280;4604;48.616;9.548;2022-08-01T09:06:14;97033.44;;;25.60;52.12
9139;BME280;4604;48.616;9.548;2022-08-01T09:08:41;97033.00;;;25.33;51.83
9139;BME280;4604;48.616;9.548;2022-08-01T09:11:08;97032.88;;;25.28;52.30
9139;BME280;4604;48.616;9.548;2022-08-01T09:13:34;97045.38;;;25.41;51.24
9139;BME280;4604;48.616;9.548;2022-08-01T09:16:01;97023.66;;;25.48;50.72
9139;BME280;4604;48.616;9.548;2022-08-01T09:18:31;97034.31;;;25.96;50.76
9139;BME280;4604;48.616;9.548;2022-08-01T09:21:15;97035.38;;;26.54;50.49
9139;BME280;4604;48.616;9.548;2022-08-01T09:23:44;97037.66;;;26.74;49.35
9139;BME280;4604;48.616;9.548;2022-08-01T09:26:13;97040.13;;;26.87;48.50
9139;BME280;4604;48.616;9.548;2022-08-01T09:28:40;97013.69;;;26.66;48.26
9139;BME280;4604;48.616;9.548;2022-08-01T09:31:08;97045.59;;;26.40;48.04
9139;BME280;4604;48.616;9.548;2022-08-01T09:33:49;97053.00;;;26.45;48.05
9139;BME280;4604;48.616;9.548;2022-08-01T09:36:17;97041.69;;;26.48;48.54
9139;BME280;4604;48.616;9.548;2022-08-01T09:38:44;97035.13;;;26.44;47.72
9139;BME280;4604;48.616;9.548;2022-08-01T09:41:11;97045.38;;;26.54;48.24
9139;BME280;4604;48.616;9.548;2022-08-01T09:43:38;97046.28;;;26.47;48.03
9139;BME280;4604;48.616;9.548;2022-08-01T09:46:09;97044.50;;;26.65;47.91
9139;BME280;4604;48.616;9.548;2022-08-01T09:48:37;97039.13;;;26.30;48.13
9139;BME280;4604;48.616;9.548;2022-08-01T09:51:05;97042.78;;;26.35;48.15
9139;BME280;4604;48.616;9.548;2022-08-01T09:53:44;97023.94;;;26.64;48.35
9139;BME280;4604;48.616;9.548;2022-08-01T09:56:12;97021.84;;;26.95;47.91
9139;BME280;4604;48.616;9.548;2022-08-01T09:58:53;97031.25;;;27.49;46.52
9139;BME280;4604;48.616;9.548;2022-08-01T10:01:21;97027.81;;;27.71;46.42
9139;BME280;4604;48.616;9.548;2022-08-01T10:04:04;97036.34;;;27.17;46.19
9139;BME280;4604;48.616;9.548;2022-08-01T10:06:31;97021.88;;;27.57;45.29
9139;BME280;4604;48.616;9.548;2022-08-01T10:08:59;97027.84;;;27.25;46.17
9139;BME280;4604;48.616;9.548;2022-08-01T10:11:26;97019.97;;;26.83;46.92
9139;BME280;4604;48.616;9.548;2022-08-01T10:13:55;96982.56;;;26.80;46.53
9139;BME280;4604;48.616;9.548;2022-08-01T10:16:24;97012.31;;;27.21;46.42
9139;BME280;4604;48.616;9.548;2022-08-01T10:18:51;97006.53;;;27.17;45.98
9139;BME280;4604;48.616;9.548;2022-08-01T10:21:19;97016.03;;;27.31;45.81
9139;BME280;4604;48.616;9.548;2022-08-01T10:23:47;97009.78;;;27.31;45.71
9139;BME280;4604;48.616;9.548;2022-08-01T10:26:15;97007.41;;;27.35;45.29
9139;BME280;4604;48.616;9.548;2022-08-01T10:28:44;97008.41;;;27.45;45.75
9139;BME280;4604;48.616;9.548;2022-08-01T10:31:12;96998.16;;;27.81;45.51
9139;BME280;4604;48.616;9.548;2022-08-01T10:33:40;97011.88;;;27.74;45.02
9139;BME280;4604;48.616;9.548;2022-08-01T10:36:07;97005.66;;;27.28;45.67
9139;BME280;4604;48.616;9.548;2022-08-01T10:38:35;96992.75;;;27.19;45.96
9139;BME280;4604;48.616;9.548;2022-08-01T10:41:03;97000.44;;;27.10;45.78
9139;BME280;4604;48.616;9.548;2022-08-01T10:43:32;96997.50;;;26.83;45.84
9139;BME280;4604;48.616;9.548;2022-08-01T10:45:58;97000.97;;;26.66;47.10
9139;BME280;4604;48.616;9.548;2022-08-01T10:48:31;96996.72;;;26.71;47.15
9139;BME280;4604;48.616;9.548;2022-08-01T10:51:03;96992.00;;;26.78;46.81
9139;BME280;4604;48.616;9.548;2022-08-01T10:53:30;96994.53;;;26.56;48.75
9139;BME280;4604;48.616;9.548;2022-08-01T10:55:59;96989.69;;;26.58;49.13
9139;BME280;4604;48.616;9.548;2022-08-01T10:58:29;96988.94;;;26.74;49.39
9139;BME280;4604;48.616;9.548;2022-08-01T11:01:22;96993.22;;;26.87;48.46
9139;BME280;4604;48.616;9.548;2022-08-01T11:04:07;96986.63;;;26.95;48.97
9139;BME280;4604;48.616;9.548;2022-08-01T11:06:41;96995.34;;;27.14;48.52
9139;BME280;4604;48.616;9.548;2022-08-01T11:09:24;96980.06;;;26.79;47.59
9139;BME280;4604;48.616;9.548;2022-08-01T11:12:00;96997.03;;;26.34;47.86
9139;BME280;4604;48.616;9.548;2022-08-01T11:14:29;96986.16;;;26.45;47.81
9139;BME280;4604;48.616;9.548;2022-08-01T11:17:33;96982.94;;;26.60;47.85
9139;BME280;4604;48.616;9.548;2022-08-01T11:20:08;96976.69;;;26.72;47.49
9139;BME280;4604;48.616;9.548;2022-08-01T11:26:21;96981.41;;;26.53;47.98
9139;BME280;4604;48.616;9.548;2022-08-01T11:29:14;96981.91;;;26.50;48.75
9139;BME280;4604;48.616;9.548;2022-08-01T11:31:41;96965.91;;;26.60;47.77
9139;BME280;4604;48.616;9.548;2022-08-01T11:34:09;96979.59;;;26.82;47.83
9139;BME280;4604;48.616;9.548;2022-08-01T11:36:36;96964.56;;;26.74;47.84
9139;BME280;4604;48.616;9.548;2022-08-01T11:39:16;96968.44;;;27.07;47.22
9139;BME280;4604;48.616;9.548;2022-08-01T11:41:45;96945.19;;;27.11;47.48
9139;BME280;4604;48.616;9.548;2022-08-01T11:44:15;96960.84;;;27.54;46.38
9139;BME280;4604;48.616;9.548;2022-08-01T11:46:57;96970.63;;;27.56;46.60
9139;BME280;4604;48.616;9.548;2022-08-01T11:49:43;96972.19;;;27.51;46.58
9139;BME280;4604;48.616;9.548;2022-08-01T11:52:13;96962.00;;;27.42;46.14
9139;BME280;4604;48.616;9.548;2022-08-01T11:54:44;96973.72;;;27.30;47.21
9139;BME280;4604;48.616;9.548;2022-08-01T11:57:13;96966.84;;;27.11;46.31
9139;BME280;4604;48.616;9.548;2022-08-01T11:59:42;96961.16;;;26.96;46.30
9139;BME280;4604;48.616;9.548;2022-08-01T12:02:19;96947.09;;;26.41;47.17
9139;BME280;4604;48.616;9.548;2022-08-01T12:04:53;96977.38;;;26.26;47.91
9139;BME280;4604;48.616;9.548;2022-08-01T12:07:22;96969.22;;;26.38;47.68
9139;BME280;4604;48.616;9.548;2022-08-01T12:09:56;96962.28;;;26.31;49.59
9139;BME280;4604;48.616;9.548;2022-08-01T12:12:23;96973.50;;;26.11;50.42
9139;BME280;4604;48.616;9.548;2022-08-01T12:14:53;96971.03;;;26.21;53.12
9139;BME280;4604;48.616;9.548;2022-08-01T12:17:28;96973.84;;;26.26;53.42
9139;BME280;4604;48.616;9.548;2022-08-01T12:19:56;96965.16;;;26.24;52.65
9139;BME280;4604;48.616;9.548;2022-08-01T12:22:24;96962.41;;;26.36;52.32
9139;BME280;4604;48.616;9.548;2022-08-01T12:24:51;96966.88;;;26.42;52.21
9139;BME280;4604;48.616;9.548;2022-08-01T12:27:26;96960.38;;;26.43;52.22
9139;BME280;4604;48.616;9.548;2022-08-01T12:29:53;96955.22;;;26.53;51.65
9139;BME280;4604;48.616;9.548;2022-08-01T12:32:23;96964.13;;;26.65;50.36
9139;BME280;4604;48.616;9.548;2022-08-01T12:34:50;96962.19;;;26.78;50.45
9139;BME280;4604;48.616;9.548;2022-08-01T12:37:19;96952.94;;;26.90;50.71
9139;BME280;4604;48.616;9.548;2022-08-01T12:39:46;96949.47;;;27.07;50.34
9139;BME280;4604;48.616;9.548;2022-08-01T12:42:14;96950.06;;;27.26;49.82
9139;BME280;4604;48.616;9.548;2022-08-01T12:44:43;96929.31;;;27.31;49.24
9139;BME280;4604;48.616;9.548;2022-08-01T12:47:11;96958.56;;;27.46;47.74
9139;BME280;4604;48.616;9.548;2022-08-01T12:49:41;96955.75;;;27.58;47.12
9139;BME280;4604;48.616;9.548;2022-08-01T12:52:09;96946.97;;;27.51;48.53
9139;BME280;4604;48.616;9.548;2022-08-01T12:55:09;96942.44;;;27.57;47.50
9139;BME280;4604;48.616;9.548;2022-08-01T12:57:38;96946.53;;;27.59;47.77
9139;BME280;4604;48.616;9.548;2022-08-01T13:00:24;96943.03;;;27.59;47.39
9139;BME280;4604;48.616;9.548;2022-08-01T13:03:01;96935.38;;;27.39;47.26
9139;BME280;4604;48.616;9.548;2022-08-01T13:05:41;96929.53;;;27.30;47.08
9139;BME280;4604;48.616;9.548;2022-08-01T13:08:10;96936.94;;;27.35;47.21
9139;BME280;4604;48.616;9.548;2022-08-01T13:10:39;96933.00;;;27.25;48.10
9139;BME280;4604;48.616;9.548;2022-08-01T13:13:06;96937.25;;;27.21;48.10
9139;BME280;4604;48.616;9.548;2022-08-01T13:15:35;96935.19;;;27.28;48.42
9139;BME280;4604;48.616;9.548;2022-08-01T13:18:22;96938.50;;;27.30;46.90
9139;BME280;4604;48.616;9.548;2022-08-01T13:20:49;96926.69;;;27.37;45.53
9139;BME280;4604;48.616;9.548;2022-08-01T13:23:18;96930.38;;;27.47;45.56
9139;BME280;4604;48.616;9.548;2022-08-01T13:25:54;96936.00;;;27.63;46.28
9139;BME280;4604;48.616;9.548;2022-08-01T13:28:23;96923.84;;;27.82;44.51
9139;BME280;4604;48.616;9.548;2022-08-01T13:30:54;96912.66;;;28.17;45.05
9139;BME280;4604;48.616;9.548;2022-08-01T13:33:21;96911.66;;;28.24;43.75
9139;BME280;4604;48.616;9.548;2022-08-01T13:35:50;96904.00;;;28.21;43.11
9139;BME280;4604;48.616;9.548;2022-08-01T13:38:17;96914.06;;;28.42;43.13
9139;BME280;4604;48.616;9.548;2022-08-01T13:40:44;96916.34;;;28.50;42.97
9139;BME280;4604;48.616;9.548;2022-08-01T13:43:12;96914.06;;;28.64;42.67
9139;BME280;4604;48.616;9.548;2022-08-01T13:45:45;96898.56;;;28.65;43.14
9139;BME280;4604;48.616;9.548;2022-08-01T13:48:12;96911.34;;;28.91;42.12
9139;BME280;4604;48.616;9.548;2022-08-01T13:50:39;96911.53;;;28.57;41.80
9139;BME280;4604;48.616;9.548;2022-08-01T13:53:06;96920.63;;;28.68;41.18
9139;BME280;4604;48.616;9.548;2022-08-01T13:55:32;96909.09;;;28.83;41.50